Map

Track Data

SID SEASON NUMBER BASIN SUBBASIN NAME ISO_TIME NATURE LAT LON WMO_WIND WMO_PRES WMO_AGENCY TRACK_TYPE DIST2LAND LANDFALL IFLAG USA_AGENCY USA_ATCF_ID USA_LAT USA_LON USA_RECORD USA_STATUS USA_WIND USA_PRES USA_SSHS USA_R34_NE USA_R34_SE USA_R34_SW USA_R34_NW USA_R50_NE USA_R50_SE USA_R50_SW USA_R50_NW USA_R64_NE USA_R64_SE USA_R64_SW USA_R64_NW USA_POCI USA_ROCI USA_RMW USA_EYE TOKYO_LAT TOKYO_LON TOKYO_GRADE TOKYO_WIND TOKYO_PRES TOKYO_R50_DIR TOKYO_R50_LONG TOKYO_R50_SHORT TOKYO_R30_DIR TOKYO_R30_LONG TOKYO_R30_SHORT TOKYO_LAND CMA_LAT CMA_LON CMA_CAT CMA_WIND CMA_PRES HKO_LAT HKO_LON HKO_CAT HKO_WIND HKO_PRES NEWDELHI_LAT NEWDELHI_LON NEWDELHI_GRADE NEWDELHI_WIND NEWDELHI_PRES NEWDELHI_CI NEWDELHI_DP NEWDELHI_POCI REUNION_LAT REUNION_LON REUNION_TYPE REUNION_WIND REUNION_PRES REUNION_TNUM REUNION_CI REUNION_RMW REUNION_R34_NE REUNION_R34_SE REUNION_R34_SW REUNION_R34_NW REUNION_R50_NE REUNION_R50_SE REUNION_R50_SW REUNION_R50_NW REUNION_R64_NE REUNION_R64_SE REUNION_R64_SW REUNION_R64_NW BOM_LAT BOM_LON BOM_TYPE BOM_WIND BOM_PRES BOM_TNUM BOM_CI BOM_RMW BOM_R34_NE BOM_R34_SE BOM_R34_SW BOM_R34_NW BOM_R50_NE BOM_R50_SE BOM_R50_SW BOM_R50_NW BOM_R64_NE BOM_R64_SE BOM_R64_SW BOM_R64_NW BOM_ROCI BOM_POCI BOM_EYE BOM_POS_METHOD BOM_PRES_METHOD NADI_LAT NADI_LON NADI_CAT NADI_WIND NADI_PRES WELLINGTON_LAT WELLINGTON_LON WELLINGTON_WIND WELLINGTON_PRES DS824_LAT DS824_LON DS824_STAGE DS824_WIND DS824_PRES TD9636_LAT TD9636_LON TD9636_STAGE TD9636_WIND TD9636_PRES TD9635_LAT TD9635_LON TD9635_WIND TD9635_PRES TD9635_ROCI NEUMANN_LAT NEUMANN_LON NEUMANN_CLASS NEUMANN_WIND NEUMANN_PRES MLC_LAT MLC_LON MLC_CLASS MLC_WIND MLC_PRES USA_GUST BOM_GUST BOM_GUST_PER REUNION_GUST REUNION_GUST_PER USA_SEAHGT USA_SEARAD_NE USA_SEARAD_SE USA_SEARAD_SW USA_SEARAD_NW STORM_SPEED STORM_DIR
1877111S15063 1877 10 SI MM NOT_NAMED 1877-04-20 18:00:00 NR -15.2000 63.3000 main 807 792 __________O___ -1 -15.2000 63.3000 7 5 260
1877111S15063 1877 10 SI MM NOT_NAMED 1877-04-20 21:00:00 NR -15.2392 63.0641 main 792 761 __________P___ -1 -15.2392 63.0641 7 5 260
1877111S15063 1877 10 SI MM NOT_NAMED 1877-04-21 00:00:00 NR -15.2826 62.8225 main 761 746 __________P___ -1 -15.2826 62.8225 7 5 259
1877111S15063 1877 10 SI MM NOT_NAMED 1877-04-21 03:00:00 NR -15.3347 62.5697 main 746 716 __________P___ -1 -15.3347 62.5697 7 5 257
1877111S15063 1877 10 SI MM NOT_NAMED 1877-04-21 06:00:00 NR -15.4000 62.3000 main 716 687 __________O___ -1 -15.4000 62.3000 7 6 255
1877111S15063 1877 10 SI MM NOT_NAMED 1877-04-21 09:00:00 NR -15.4816 62.0103 main 687 657 __________P___ -1 -15.4816 62.0103 7 6 253
1877111S15063 1877 10 SI MM NOT_NAMED 1877-04-21 12:00:00 NR -15.5775 61.7075 main 657 628 __________P___ -1 -15.5775 61.7075 7 6 251
1877111S15063 1877 10 SI MM NOT_NAMED 1877-04-21 15:00:00 NR -15.6847 61.4009 main 628 600 __________P___ -1 -15.6847 61.4009 7 6 249
1877111S15063 1877 10 SI MM NOT_NAMED 1877-04-21 18:00:00 NR -15.8000 61.1000 main 600 572 __________O___ -1 -15.8000 61.1000 7 6 248
1877111S15063 1877 10 SI MM NOT_NAMED 1877-04-21 21:00:00 NR -15.9136 60.8177 main 572 551 __________P___ -1 -15.9136 60.8177 7 6 246
1877111S15063 1877 10 SI MM NOT_NAMED 1877-04-22 00:00:00 NR -16.0348 60.5423 main 545 515 __________P___ -1 -16.0348 60.5423 7 6 245
1877111S15063 1877 10 SI MM NOT_NAMED 1877-04-22 03:00:00 NR -16.1636 60.2708 main 515 489 __________P___ -1 -16.1636 60.2708 7 6 243
1877111S15063 1877 10 SI MM NOT_NAMED 1877-04-22 06:00:00 NR -16.3000 60.0000 main 489 464 __________O___ -1 -16.3000 60.0000 7 6 242
1877111S15063 1877 10 SI MM NOT_NAMED 1877-04-22 09:00:00 NR -16.4386 59.7249 main 464 435 __________P___ -1 -16.4386 59.7249 7 6 242
1877111S15063 1877 10 SI MM NOT_NAMED 1877-04-22 12:00:00 NR -16.5849 59.4498 main 430 411 __________P___ -1 -16.5849 59.4498 7 6 240
1877111S15063 1877 10 SI MM NOT_NAMED 1877-04-22 15:00:00 NR -16.7386 59.1749 main 411 379 __________P___ -1 -16.7386 59.1749 7 6 239
1877111S15063 1877 10 SI MM NOT_NAMED 1877-04-22 18:00:00 NR -16.9000 58.9000 main 379 348 __________O___ -1 -16.9000 58.9000 7 6 238
1877111S15063 1877 10 SI MM NOT_NAMED 1877-04-22 21:00:00 NR -17.0686 58.6253 main 348 332 __________P___ -1 -17.0686 58.6253 7 6 237
1877111S15063 1877 10 SI MM NOT_NAMED 1877-04-23 00:00:00 NR -17.2428 58.3504 main 332 304 __________P___ -1 -17.2428 58.3504 7 6 236
1877111S15063 1877 10 SI MM NOT_NAMED 1877-04-23 03:00:00 NR -17.4206 58.0754 main 304 279 __________P___ -1 -17.4206 58.0754 7 6 236
1877111S15063 1877 10 SI MM NOT_NAMED 1877-04-23 06:00:00 NR -17.6000 57.8000 main 279 __________O___ -1 -17.6000 57.8000 7 6 236

About IBTrACS Database

This database is a web-friendly format of International Best Track Archive for Climate Stewardship (IBTrACS), a global best track data archive curated by NOAA dating back to 1842.

Updated: 2021-12-03